Time;durP1;ratioP1;P1;durP2;ratioP2;P2;SDS_P1;SDS_P2;PMS_P1;PMS_P2;Temp;Humidity;BMP_temperature;BMP_pressure;BME280_temperature;BME280_humidity;BME280_pressure;Samples;Min_cycle;Max_cycle;Signal;HPM_P1;HPM_P2
2022/12/13 00:00:45;;;;;;;40.63;23.27;;;;;;;;;;5037391;28;20117;-92
2022/12/13 00:03:11;;;;;;;40.85;23.10;;;;;;;;;;5037527;28;20055;-92
2022/12/13 00:05:42;;;;;;;37.10;22.20;;;;;;;;;;5037252;28;20076;-91
2022/12/13 00:08:08;;;;;;;37.55;22.67;;;;;;;;;;5037189;28;20037;-92
2022/12/13 00:13:43;;;;;;;39.42;21.98;;;;;;;;;;5022420;28;20060;-92
2022/12/13 00:16:40;;;;;;;35.38;20.75;;;;;;;;;;5033382;28;20045;-92
2022/12/13 00:19:06;;;;;;;39.30;22.15;;;;;;;;;;5013756;28;20049;-92
2022/12/13 00:21:33;;;;;;;42.00;24.52;;;;;;;;;;5016059;28;20034;-93
2022/12/13 00:24:00;;;;;;;42.92;22.42;;;;;;;;;;5015798;28;20034;-91
2022/12/13 00:29:30;;;;;;;46.50;25.20;;;;;;;;;;5000917;28;20121;-93
2022/12/13 00:31:56;;;;;;;45.60;24.98;;;;;;;;;;4999277;28;20030;-92
2022/12/13 00:34:23;;;;;;;46.72;26.02;;;;;;;;;;5015575;28;20041;-92
2022/12/13 00:36:51;;;;;;;46.85;25.92;;;;;;;;;;5015628;28;20060;-91
2022/12/13 00:59:47;;;;;;;41.65;24.17;;;;;;;;;;5085465;23;20499;-94
2022/12/13 01:05:22;;;;;;;43.20;23.42;;;;;;;;;;5033141;23;20047;-95
2022/12/13 01:07:52;;;;;;;44.30;24.60;;;;;;;;;;4981404;28;20023;-93
2022/12/13 01:16:05;;;;;;;39.53;23.20;;;;;;;;;;5004027;23;20063;-92
2022/12/13 01:18:31;;;;;;;43.10;24.02;;;;;;;;;;4961106;29;20027;-91
2022/12/13 01:29:30;;;;;;;41.97;23.98;;;;;;;;;;5020594;23;20131;-93
2022/12/13 01:31:56;;;;;;;43.10;23.48;;;;;;;;;;4964003;28;20050;-93
2022/12/13 01:34:23;;;;;;;43.83;23.35;;;;;;;;;;4981051;28;20024;-94
2022/12/13 01:36:50;;;;;;;40.45;23.63;;;;;;;;;;4981309;28;20110;-92
2022/12/13 01:39:18;;;;;;;43.03;23.67;;;;;;;;;;4963759;28;20114;-93
2022/12/13 01:44:54;;;;;;;45.92;25.30;;;;;;;;;;4984059;23;20401;-93
2022/12/13 01:47:25;;;;;;;43.95;25.88;;;;;;;;;;4970287;28;20410;-93
2022/12/13 02:39:07;;;;;;;43.80;24.60;;;;;;;;;;4962284;28;20035;-93
2022/12/13 02:47:42;;;;;;;45.03;23.73;;;;;;;;;;4979916;28;20487;-92
2022/12/13 02:50:09;;;;;;;46.58;26.30;;;;;;;;;;4979995;28;20046;-93
2022/12/13 02:52:35;;;;;;;43.67;23.40;;;;;;;;;;4962572;28;20031;-92
2022/12/13 02:55:06;;;;;;;42.70;22.52;;;;;;;;;;4979865;28;20023;-91
2022/12/13 03:06:51;;;;;;;40.40;22.58;;;;;;;;;;4979940;28;20135;-92
2022/12/13 03:15:16;;;;;;;37.30;19.65;;;;;;;;;;4978027;28;20081;-93
2022/12/13 03:17:51;;;;;;;36.70;19.23;;;;;;;;;;4979638;28;20030;-91
2022/12/13 03:20:18;;;;;;;34.97;20.10;;;;;;;;;;4963233;28;20052;-92
2022/12/13 03:22:44;;;;;;;34.42;19.25;;;;;;;;;;4960255;29;20377;-91
2022/12/13 03:25:10;;;;;;;31.83;18.35;;;;;;;;;;4960191;29;20024;-92
2022/12/13 03:27:36;;;;;;;33.03;17.90;;;;;;;;;;4959969;29;20035;-93
2022/12/13 03:30:03;;;;;;;30.45;17.95;;;;;;;;;;4959696;28;20042;-92
2022/12/13 03:32:29;;;;;;;30.08;17.60;;;;;;;;;;4962185;28;20033;-92
2022/12/13 03:34:56;;;;;;;33.03;19.08;;;;;;;;;;4979153;28;20075;-91
2022/12/13 03:37:24;;;;;;;34.78;19.10;;;;;;;;;;4962111;28;20414;-92
2022/12/13 03:39:50;;;;;;;36.10;19.65;;;;;;;;;;4979203;28;20310;-92
2022/12/13 03:42:16;;;;;;;37.03;19.52;;;;;;;;;;4978917;28;20469;-92
2022/12/13 03:44:43;;;;;;;34.00;19.40;;;;;;;;;;4974467;28;20042;-91
2022/12/13 03:47:09;;;;;;;31.95;19.80;;;;;;;;;;4923663;29;20331;-92
2022/12/13 03:49:35;;;;;;;36.00;18.98;;;;;;;;;;4940515;29;20044;-91
2022/12/13 03:52:03;;;;;;;34.95;20.27;;;;;;;;;;4923700;29;20024;-92
2022/12/13 03:54:29;;;;;;;35.80;21.08;;;;;;;;;;4947448;29;20502;-93
2022/12/13 03:56:57;;;;;;;37.00;19.55;;;;;;;;;;4954242;29;20043;-92
2022/12/13 03:59:23;;;;;;;33.08;18.60;;;;;;;;;;4946823;29;20047;-93
2022/12/13 04:01:49;;;;;;;35.03;18.85;;;;;;;;;;4940844;29;20023;-93
2022/12/13 04:04:15;;;;;;;31.90;18.10;;;;;;;;;;4947476;29;20334;-92
2022/12/13 04:06:41;;;;;;;34.58;18.90;;;;;;;;;;4955259;29;20406;-94
2022/12/13 04:09:07;;;;;;;32.22;18.75;;;;;;;;;;4957467;29;20030;-92
2022/12/13 04:14:18;;;;;;;283.02;84.68;;;;;;;;;;4944438;29;20051;-92
2022/12/13 04:16:44;;;;;;;248.02;76.88;;;;;;;;;;4941456;29;20035;-92
2022/12/13 05:26:08;;;;;;;136.75;61.28;;;;;;;;;;5081818;23;20110;-89
2022/12/13 07:40:16;;;;;;;199.20;85.10;;;;;;;;;;4979412;28;20041;-88
2022/12/13 07:42:50;;;;;;;146.88;67.53;;;;;;;;;;4942990;29;20066;-88
2022/12/13 07:45:16;;;;;;;153.82;71.55;;;;;;;;;;4959526;29;20055;-90
2022/12/13 07:47:42;;;;;;;153.80;72.15;;;;;;;;;;4958496;29;20043;-89
2022/12/13 07:50:08;;;;;;;143.65;66.72;;;;;;;;;;4958703;29;20032;-88
2022/12/13 07:52:34;;;;;;;129.30;61.95;;;;;;;;;;4958652;29;20027;-88
2022/12/13 07:55:01;;;;;;;137.88;66.78;;;;;;;;;;4958858;29;20054;-88
2022/12/13 07:57:27;;;;;;;122.80;62.47;;;;;;;;;;4959484;29;20024;-89
2022/12/13 07:59:53;;;;;;;124.55;61.33;;;;;;;;;;4959404;29;20039;-88
2022/12/13 08:02:19;;;;;;;128.88;62.55;;;;;;;;;;4959431;29;20122;-87
2022/12/13 08:04:45;;;;;;;167.45;77.28;;;;;;;;;;4958963;29;20031;-88
2022/12/13 08:07:11;;;;;;;171.73;81.78;;;;;;;;;;4958832;29;20031;-92
2022/12/13 08:09:37;;;;;;;220.82;103.97;;;;;;;;;;4959072;29;20114;-92
2022/12/13 08:12:04;;;;;;;181.27;75.95;;;;;;;;;;4958414;29;20151;-90
2022/12/13 08:14:30;;;;;;;172.25;71.80;;;;;;;;;;4959426;29;20027;-92
2022/12/13 08:16:56;;;;;;;175.85;74.35;;;;;;;;;;4961484;28;20083;-91
2022/12/13 08:19:22;;;;;;;141.25;59.95;;;;;;;;;;4962368;29;20023;-91
2022/12/13 08:21:51;;;;;;;123.30;50.92;;;;;;;;;;4963473;29;20120;-90
2022/12/13 08:24:17;;;;;;;102.35;49.03;;;;;;;;;;4963252;29;20102;-92
2022/12/13 08:26:43;;;;;;;87.78;45.33;;;;;;;;;;4963215;29;20031;-91
2022/12/13 08:29:09;;;;;;;65.95;37.67;;;;;;;;;;4962686;29;20031;-92
2022/12/13 08:31:35;;;;;;;57.95;33.95;;;;;;;;;;4962002;29;20019;-91
2022/12/13 08:34:01;;;;;;;60.92;34.80;;;;;;;;;;4962929;29;20044;-89
2022/12/13 08:36:27;;;;;;;63.03;37.35;;;;;;;;;;4963439;29;20026;-92
2022/12/13 08:39:01;;;;;;;65.78;37.20;;;;;;;;;;4961882;29;20082;-93
2022/12/13 08:41:27;;;;;;;60.25;33.35;;;;;;;;;;4961900;29;20026;-91
2022/12/13 08:43:53;;;;;;;63.25;34.95;;;;;;;;;;4961997;29;20078;-91
2022/12/13 08:46:19;;;;;;;69.57;39.25;;;;;;;;;;4962686;29;20027;-91
2022/12/13 08:48:46;;;;;;;61.67;35.00;;;;;;;;;;4961873;29;20346;-92
2022/12/13 08:51:13;;;;;;;71.80;38.47;;;;;;;;;;4961850;29;20314;-91
2022/12/13 08:53:40;;;;;;;78.28;40.83;;;;;;;;;;4962897;29;20025;-92
2022/12/13 08:56:09;;;;;;;106.30;49.33;;;;;;;;;;4962896;29;20351;-93
2022/12/13 08:58:35;;;;;;;102.55;48.42;;;;;;;;;;4961717;29;20476;-94
2022/12/13 09:01:05;;;;;;;76.68;38.33;;;;;;;;;;4961517;29;20035;-91
2022/12/13 09:03:31;;;;;;;60.08;30.02;;;;;;;;;;4962752;28;20045;-92
2022/12/13 09:05:57;;;;;;;48.33;24.65;;;;;;;;;;4960862;29;20133;-93
2022/12/13 09:08:23;;;;;;;48.03;26.15;;;;;;;;;;4962498;29;20118;-92
2022/12/13 09:10:55;;;;;;;64.43;29.17;;;;;;;;;;4962415;29;20027;-93
2022/12/13 09:13:21;;;;;;;59.13;29.08;;;;;;;;;;4961364;29;20075;-92
2022/12/13 09:15:48;;;;;;;38.83;20.73;;;;;;;;;;4961568;29;20429;-93
2022/12/13 09:18:14;;;;;;;37.15;19.83;;;;;;;;;;4962272;29;20034;-92
2022/12/13 09:20:41;;;;;;;32.95;17.90;;;;;;;;;;4962473;29;20031;-94
2022/12/13 09:23:07;;;;;;;38.80;21.00;;;;;;;;;;4960862;29;20126;-93
2022/12/13 09:25:33;;;;;;;42.83;23.75;;;;;;;;;;4961244;29;20033;-93
2022/12/13 09:28:02;;;;;;;30.70;16.50;;;;;;;;;;4960483;28;20183;-93
2022/12/13 09:30:28;;;;;;;25.55;14.45;;;;;;;;;;4960441;29;20035;-95
2022/12/13 09:32:55;;;;;;;19.08;11.40;;;;;;;;;;4961825;28;20039;-95
2022/12/13 09:35:21;;;;;;;20.40;12.23;;;;;;;;;;4962304;29;20023;-95
2022/12/13 09:37:47;;;;;;;26.27;13.23;;;;;;;;;;4961093;29;20051;-96
2022/12/13 09:40:25;;;;;;;27.98;15.15;;;;;;;;;;4961741;29;20036;-91
2022/12/13 09:42:53;;;;;;;33.60;15.10;;;;;;;;;;4962428;29;20418;-95
2022/12/13 09:45:19;;;;;;;25.45;13.63;;;;;;;;;;4960885;29;20035;-95
2022/12/13 09:47:46;;;;;;;24.10;14.30;;;;;;;;;;4961872;29;20074;-94
2022/12/13 09:50:14;;;;;;;25.88;13.43;;;;;;;;;;4961945;29;20032;-94
2022/12/13 09:52:41;;;;;;;22.38;13.52;;;;;;;;;;4961536;29;20023;-94
2022/12/13 09:55:19;;;;;;;40.20;18.58;;;;;;;;;;4960834;29;20027;-94
2022/12/13 09:57:46;;;;;;;33.53;16.88;;;;;;;;;;4961370;29;20023;-95
2022/12/13 10:00:14;;;;;;;31.48;16.67;;;;;;;;;;4961715;29;20110;-95
2022/12/13 10:02:47;;;;;;;27.42;15.02;;;;;;;;;;4961682;28;20065;-95
2022/12/13 10:05:26;;;;;;;39.00;17.90;;;;;;;;;;4960483;29;20035;-95
2022/12/13 10:10:55;;;;;;;23.65;11.82;;;;;;;;;;4962511;29;20152;-96
2022/12/13 10:13:21;;;;;;;16.83;9.40;;;;;;;;;;4964626;29;20422;-96
2022/12/13 10:15:52;;;;;;;18.55;10.57;;;;;;;;;;4965673;29;20030;-96
2022/12/13 10:18:39;;;;;;;28.80;15.80;;;;;;;;;;4967190;29;20027;-96
2022/12/13 10:21:25;;;;;;;37.03;20.77;;;;;;;;;;4966564;29;20024;-96
2022/12/13 10:23:52;;;;;;;30.20;16.98;;;;;;;;;;4885184;29;20029;-95
2022/12/13 10:26:18;;;;;;;27.88;15.60;;;;;;;;;;4884042;29;20112;-96
2022/12/13 10:28:44;;;;;;;30.98;17.15;;;;;;;;;;4885933;29;20062;-95
2022/12/13 10:31:17;;;;;;;38.22;18.45;;;;;;;;;;4885804;29;20409;-96
2022/12/13 10:33:51;;;;;;;35.10;17.92;;;;;;;;;;4884635;29;20141;-95
2022/12/13 10:36:37;;;;;;;35.83;18.88;;;;;;;;;;4869044;29;20033;-96
2022/12/13 10:39:04;;;;;;;32.33;18.02;;;;;;;;;;4883085;29;20123;-96
2022/12/13 10:41:37;;;;;;;24.27;14.05;;;;;;;;;;4867952;29;20066;-96
2022/12/13 10:44:07;;;;;;;24.00;12.07;;;;;;;;;;4883396;29;20412;-96
2022/12/13 10:46:33;;;;;;;24.60;13.25;;;;;;;;;;4883664;29;20036;-96
2022/12/13 10:49:00;;;;;;;36.83;19.27;;;;;;;;;;4883444;29;20065;-95
2022/12/13 10:51:26;;;;;;;41.47;19.27;;;;;;;;;;4883941;29;20324;-95
2022/12/13 10:53:57;;;;;;;28.83;13.52;;;;;;;;;;4867943;29;20063;-94
2022/12/13 10:56:32;;;;;;;41.15;20.10;;;;;;;;;;4883190;29;20496;-95
2022/12/13 10:59:17;;;;;;;45.08;22.33;;;;;;;;;;4883366;29;20081;-95
2022/12/13 11:01:43;;;;;;;40.00;21.42;;;;;;;;;;4947309;29;20369;-95
2022/12/13 11:04:28;;;;;;;30.83;16.88;;;;;;;;;;4960359;29;20035;-95
2022/12/13 11:06:55;;;;;;;27.05;15.77;;;;;;;;;;4960134;29;20023;-94
2022/12/13 11:09:27;;;;;;;36.85;18.65;;;;;;;;;;4960084;29;20035;-94
2022/12/13 11:11:53;;;;;;;36.97;18.85;;;;;;;;;;4959336;29;20366;-94
2022/12/13 11:14:22;;;;;;;27.38;16.77;;;;;;;;;;4960378;29;20037;-93
2022/12/13 11:16:56;;;;;;;32.05;18.05;;;;;;;;;;4958577;29;20130;-92
2022/12/13 11:19:25;;;;;;;39.78;19.45;;;;;;;;;;4960043;29;20322;-93
2022/12/13 11:21:53;;;;;;;35.42;18.73;;;;;;;;;;4959970;29;20047;-94
2022/12/13 11:24:24;;;;;;;43.05;20.52;;;;;;;;;;4960278;29;20110;-93
2022/12/13 11:26:55;;;;;;;44.53;23.33;;;;;;;;;;4960076;29;20292;-93
2022/12/13 11:29:24;;;;;;;43.20;22.98;;;;;;;;;;4959936;29;20031;-94
2022/12/13 11:32:08;;;;;;;43.85;22.85;;;;;;;;;;4959047;28;20031;-93
2022/12/13 11:34:37;;;;;;;38.47;20.92;;;;;;;;;;4959827;29;20326;-93
2022/12/13 11:37:22;;;;;;;38.25;20.42;;;;;;;;;;4959967;29;20019;-94
2022/12/13 11:39:58;;;;;;;33.85;19.02;;;;;;;;;;4959648;29;20031;-93
2022/12/13 11:42:32;;;;;;;27.23;14.85;;;;;;;;;;4958706;29;20498;-93
2022/12/13 11:45:11;;;;;;;28.45;15.77;;;;;;;;;;4958690;29;20135;-91
2022/12/13 11:47:42;;;;;;;31.13;16.52;;;;;;;;;;4959828;29;20035;-94
2022/12/13 11:50:15;;;;;;;32.30;16.35;;;;;;;;;;4959197;28;20031;-94
2022/12/13 11:52:46;;;;;;;26.95;15.13;;;;;;;;;;4958449;29;20043;-93
2022/12/13 11:55:24;;;;;;;26.25;15.30;;;;;;;;;;4942058;29;20333;-93
2022/12/13 11:57:56;;;;;;;34.95;19.05;;;;;;;;;;4959153;29;20034;-91
2022/12/13 12:00:22;;;;;;;;;;;;;;;;;;4959252;29;20042;-92
2022/12/13 12:02:50;;;;;;;21.35;11.10;;;;;;;;;;4959535;29;19915;-91
2022/12/13 12:05:37;;;;;;;20.48;11.65;;;;;;;;;;4959626;29;20034;-91
2022/12/13 12:08:12;;;;;;;19.08;10.75;;;;;;;;;;4959404;29;20031;-91
2022/12/13 12:10:44;;;;;;;17.75;10.38;;;;;;;;;;4959553;29;20024;-91
2022/12/13 12:13:38;;;;;;;15.30;9.73;;;;;;;;;;4959382;29;20051;-92
2022/12/13 12:16:23;;;;;;;21.17;11.30;;;;;;;;;;4947507;29;20031;-91
2022/12/13 12:18:50;;;;;;;33.25;15.77;;;;;;;;;;4923447;29;20028;-90
2022/12/13 12:21:16;;;;;;;20.27;11.45;;;;;;;;;;4939962;29;20083;-91
2022/12/13 12:23:42;;;;;;;27.00;13.90;;;;;;;;;;4923456;29;20024;-91
2022/12/13 12:26:12;;;;;;;22.20;11.88;;;;;;;;;;4940272;29;20131;-90
2022/12/13 12:28:47;;;;;;;16.77;10.68;;;;;;;;;;4923281;29;20031;-91
2022/12/13 12:31:13;;;;;;;22.90;11.68;;;;;;;;;;4923420;29;20427;-90
2022/12/13 12:33:42;;;;;;;23.80;12.93;;;;;;;;;;4940040;29;20075;-91
2022/12/13 12:36:08;;;;;;;23.85;13.23;;;;;;;;;;4940226;29;20046;-91
2022/12/13 12:38:49;;;;;;;24.90;14.48;;;;;;;;;;4940048;29;20028;-91
2022/12/13 12:41:17;;;;;;;20.85;12.48;;;;;;;;;;4939938;29;20118;-91
2022/12/13 12:43:44;;;;;;;22.20;12.25;;;;;;;;;;4939984;29;20035;-90
2022/12/13 12:46:22;;;;;;;20.95;12.07;;;;;;;;;;4939645;29;20027;-91
2022/12/13 12:49:06;;;;;;;24.02;11.82;;;;;;;;;;4923149;29;20039;-90
2022/12/13 12:51:39;;;;;;;22.63;12.70;;;;;;;;;;4940227;29;20029;-91
2022/12/13 12:54:17;;;;;;;22.80;11.43;;;;;;;;;;4923006;29;20028;-91
2022/12/13 12:56:51;;;;;;;19.20;10.75;;;;;;;;;;4939897;29;20086;-90
2022/12/13 12:59:26;;;;;;;17.75;10.88;;;;;;;;;;4923009;29;20032;-90
2022/12/13 13:02:01;;;;;;;23.60;13.88;;;;;;;;;;4939903;29;20079;-90
2022/12/13 13:04:32;;;;;;;21.33;11.98;;;;;;;;;;4926523;29;20139;-90
2022/12/13 13:07:10;;;;;;;21.85;12.23;;;;;;;;;;4926379;29;20036;-91
2022/12/13 13:09:37;;;;;;;32.20;17.08;;;;;;;;;;4926644;29;20078;-91
2022/12/13 13:12:04;;;;;;;22.83;13.40;;;;;;;;;;4943325;29;20020;-91
2022/12/13 13:14:30;;;;;;;40.83;23.50;;;;;;;;;;4943219;29;20027;-90
2022/12/13 13:16:57;;;;;;;29.05;16.15;;;;;;;;;;4943235;29;20028;-89
2022/12/13 13:19:32;;;;;;;17.65;10.98;;;;;;;;;;4943133;29;20058;-89
2022/12/13 13:21:58;;;;;;;35.78;22.92;;;;;;;;;;4926392;29;20435;-90
2022/12/13 13:24:25;;;;;;;37.63;20.92;;;;;;;;;;4943282;29;20071;-90
2022/12/13 13:26:51;;;;;;;32.45;20.50;;;;;;;;;;4943096;29;20031;-90
2022/12/13 13:29:24;;;;;;;25.40;14.73;;;;;;;;;;4926174;29;20028;-90
2022/12/13 13:31:56;;;;;;;23.08;13.20;;;;;;;;;;4942739;29;20119;-90
2022/12/13 13:34:27;;;;;;;28.80;14.52;;;;;;;;;;4942750;29;20078;-90
2022/12/13 13:36:55;;;;;;;29.05;15.48;;;;;;;;;;4925979;29;20035;-90
2022/12/13 13:39:38;;;;;;;30.45;16.13;;;;;;;;;;4943050;29;20031;-96
2022/12/13 13:42:35;;;;;;;29.23;14.82;;;;;;;;;;4945389;29;20020;-92
2022/12/13 13:45:02;;;;;;;30.67;15.77;;;;;;;;;;4942507;29;20043;-92
2022/12/13 13:47:37;;;;;;;57.28;25.95;;;;;;;;;;4925489;29;20051;-93
2022/12/13 13:50:03;;;;;;;212.27;107.72;;;;;;;;;;4949117;29;20031;-93
2022/12/13 13:52:55;;;;;;;182.00;97.53;;;;;;;;;;4961729;29;20429;-93
2022/12/13 13:55:31;;;;;;;247.68;137.77;;;;;;;;;;4959130;29;20043;-93
2022/12/13 13:58:28;;;;;;;541.42;313.15;;;;;;;;;;4961662;29;20027;-93
2022/12/13 14:00:54;;;;;;;329.90;168.15;;;;;;;;;;4961549;29;20058;-93
2022/12/13 14:03:23;;;;;;;279.67;138.25;;;;;;;;;;4961729;29;20419;-91
2022/12/13 14:05:53;;;;;;;613.45;350.45;;;;;;;;;;4961656;29;20118;-95
2022/12/13 14:08:25;;;;;;;446.45;233.85;;;;;;;;;;4961428;29;20034;-93
2022/12/13 14:11:09;;;;;;;983.97;539.78;;;;;;;;;;4961388;29;20122;-93
2022/12/13 14:13:54;;;;;;;618.65;320.38;;;;;;;;;;4944201;29;20062;-93
2022/12/13 14:16:20;;;;;;;406.48;191.35;;;;;;;;;;4961556;29;20071;-92
2022/12/13 14:18:57;;;;;;;259.85;121.05;;;;;;;;;;4961359;29;20023;-92
2022/12/13 14:21:43;;;;;;;474.40;215.05;;;;;;;;;;4961051;29;20406;-92
2022/12/13 14:24:09;;;;;;;751.50;355.13;;;;;;;;;;4961041;29;20019;-93
2022/12/13 14:26:50;;;;;;;467.08;196.73;;;;;;;;;;4961037;29;20046;-92
2022/12/13 14:29:18;;;;;;;251.90;99.28;;;;;;;;;;4961367;29;20031;-94
2022/12/13 14:31:45;;;;;;;334.50;134.32;;;;;;;;;;4943933;29;20031;-92
2022/12/13 14:34:24;;;;;;;268.65;110.25;;;;;;;;;;4945041;29;20158;-92
2022/12/13 14:36:58;;;;;;;179.57;70.90;;;;;;;;;;4941663;29;20043;-93
2022/12/13 14:39:24;;;;;;;548.08;250.90;;;;;;;;;;4941855;29;20031;-92
2022/12/13 14:41:52;;;;;;;363.98;144.00;;;;;;;;;;4941827;29;20024;-88
2022/12/13 14:44:28;;;;;;;240.80;99.90;;;;;;;;;;4941814;29;20074;-94
2022/12/13 14:46:56;;;;;;;382.63;168.52;;;;;;;;;;4924705;29;20023;-93
2022/12/13 14:49:23;;;;;;;525.00;258.40;;;;;;;;;;4924428;29;20043;-92
2022/12/13 14:51:59;;;;;;;65.28;33.92;;;;;;;;;;4941336;29;20024;-93
2022/12/13 14:54:29;;;;;;;114.78;51.63;;;;;;;;;;4924726;29;20051;-95
2022/12/13 14:56:58;;;;;;;180.98;79.70;;;;;;;;;;4959861;29;20031;-92
2022/12/13 14:59:24;;;;;;;220.85;82.75;;;;;;;;;;4960441;29;20031;-93
2022/12/13 15:01:55;;;;;;;118.78;48.53;;;;;;;;;;4960300;29;20110;-94
2022/12/13 15:04:21;;;;;;;211.38;73.95;;;;;;;;;;4942786;29;20039;-92
2022/12/13 15:06:55;;;;;;;299.88;105.05;;;;;;;;;;4960399;29;20094;-92
2022/12/13 15:09:22;;;;;;;205.88;77.10;;;;;;;;;;4943431;29;20146;-92
2022/12/13 15:11:50;;;;;;;470.38;176.45;;;;;;;;;;4960256;29;20051;-93
2022/12/13 15:14:18;;;;;;;220.90;85.22;;;;;;;;;;4960230;29;20029;-92
2022/12/13 15:16:51;;;;;;;468.02;195.13;;;;;;;;;;4960101;29;20452;-92
2022/12/13 15:19:19;;;;;;;470.60;189.15;;;;;;;;;;4959883;29;20031;-92
2022/12/13 15:21:55;;;;;;;370.70;144.35;;;;;;;;;;4960134;29;20438;-92
2022/12/13 15:24:26;;;;;;;243.10;89.85;;;;;;;;;;4942901;28;20031;-92
2022/12/13 15:26:53;;;;;;;147.40;58.55;;;;;;;;;;4942442;29;20070;-92
2022/12/13 15:29:22;;;;;;;454.92;168.48;;;;;;;;;;4959941;29;20046;-93
2022/12/13 15:31:48;;;;;;;407.60;148.60;;;;;;;;;;4942814;29;20025;-92
2022/12/13 15:34:29;;;;;;;527.75;201.15;;;;;;;;;;4959692;29;20074;-93
2022/12/13 15:36:57;;;;;;;370.40;125.00;;;;;;;;;;4960064;29;20351;-94
2022/12/13 15:39:30;;;;;;;421.50;142.77;;;;;;;;;;4960039;29;20058;-92
2022/12/13 15:41:56;;;;;;;325.42;109.72;;;;;;;;;;4959669;29;20046;-93
2022/12/13 15:44:26;;;;;;;510.65;193.27;;;;;;;;;;4941765;29;20457;-92
2022/12/13 15:46:55;;;;;;;563.00;237.65;;;;;;;;;;4959569;29;20071;-93
2022/12/13 15:49:24;;;;;;;508.30;210.93;;;;;;;;;;4942899;29;20493;-93
2022/12/13 15:52:00;;;;;;;555.70;232.25;;;;;;;;;;4942860;29;20038;-93
2022/12/13 15:54:27;;;;;;;395.33;156.20;;;;;;;;;;4959588;29;20031;-93
2022/12/13 15:57:14;;;;;;;154.57;65.45;;;;;;;;;;4959611;29;20548;-92
2022/12/13 15:59:43;;;;;;;322.55;123.57;;;;;;;;;;4942609;29;20027;-93
2022/12/13 16:02:32;;;;;;;262.27;98.00;;;;;;;;;;4959407;29;20031;-93
2022/12/13 16:05:05;;;;;;;264.65;86.25;;;;;;;;;;4942431;29;20063;-94
2022/12/13 16:07:38;;;;;;;262.75;84.20;;;;;;;;;;4959854;29;20318;-94
2022/12/13 16:10:05;;;;;;;170.48;58.78;;;;;;;;;;4942410;29;20031;-92
2022/12/13 16:12:51;;;;;;;110.78;46.05;;;;;;;;;;4959134;29;20031;-93
2022/12/13 16:15:27;;;;;;;316.63;101.60;;;;;;;;;;4942236;29;20039;-93
2022/12/13 16:17:57;;;;;;;102.93;45.40;;;;;;;;;;4941723;29;20036;-93
2022/12/13 16:20:26;;;;;;;375.40;115.78;;;;;;;;;;4959400;29;20322;-92
2022/12/13 16:22:53;;;;;;;199.23;72.57;;;;;;;;;;4942678;29;20122;-96
2022/12/13 16:25:19;;;;;;;150.57;59.80;;;;;;;;;;4959632;29;20031;-95
2022/12/13 16:27:46;;;;;;;264.08;94.47;;;;;;;;;;4937733;29;20059;-93
2022/12/13 16:30:40;;;;;;;313.20;107.70;;;;;;;;;;4934594;29;20414;-93
2022/12/13 16:33:10;;;;;;;384.00;125.35;;;;;;;;;;4898355;29;20130;-92
2022/12/13 16:35:38;;;;;;;169.90;62.90;;;;;;;;;;4882054;29;20109;-94
2022/12/13 16:38:15;;;;;;;90.32;43.70;;;;;;;;;;4885387;29;20044;-96
2022/12/13 16:40:41;;;;;;;139.10;58.10;;;;;;;;;;4885637;29;20033;-94
2022/12/13 16:43:14;;;;;;;133.07;53.95;;;;;;;;;;4888990;29;20032;-92
2022/12/13 16:45:42;;;;;;;158.20;60.05;;;;;;;;;;4888824;29;20450;-94
2022/12/13 16:48:14;;;;;;;156.27;60.13;;;;;;;;;;4903752;29;20032;-94
2022/12/13 16:50:44;;;;;;;121.72;48.50;;;;;;;;;;4886896;29;20046;-94
2022/12/13 16:53:14;;;;;;;164.30;60.38;;;;;;;;;;4892413;29;20033;-94
2022/12/13 16:55:54;;;;;;;234.32;87.15;;;;;;;;;;4893270;29;20106;-94
2022/12/13 16:58:22;;;;;;;162.23;65.32;;;;;;;;;;4908363;29;20052;-94
2022/12/13 17:00:48;;;;;;;139.10;61.28;;;;;;;;;;4900446;29;20506;-95
2022/12/13 17:03:16;;;;;;;94.78;43.55;;;;;;;;;;4888244;29;20466;-94
2022/12/13 17:05:44;;;;;;;144.23;62.97;;;;;;;;;;4904232;29;20115;-95
2022/12/13 17:08:19;;;;;;;122.55;56.28;;;;;;;;;;4903754;29;20384;-95
2022/12/13 17:10:47;;;;;;;177.05;77.93;;;;;;;;;;4935092;29;20047;-94
2022/12/13 17:13:13;;;;;;;111.43;50.35;;;;;;;;;;4945577;29;20024;-94
2022/12/13 17:15:40;;;;;;;121.70;55.80;;;;;;;;;;4962591;29;20027;-93
2022/12/13 17:18:06;;;;;;;161.38;71.47;;;;;;;;;;4962162;29;20062;-93
2022/12/13 17:20:32;;;;;;;182.57;80.85;;;;;;;;;;4962124;29;20027;-94
2022/12/13 17:22:58;;;;;;;108.40;53.08;;;;;;;;;;4962311;29;20031;-94
2022/12/13 17:25:24;;;;;;;135.85;63.17;;;;;;;;;;4945395;29;20031;-95
2022/12/13 17:27:50;;;;;;;84.57;41.03;;;;;;;;;;4944714;29;20032;-93
2022/12/13 17:30:20;;;;;;;81.07;40.40;;;;;;;;;;4962106;29;20488;-93
2022/12/13 17:32:55;;;;;;;91.68;43.22;;;;;;;;;;4962033;29;20034;-93
2022/12/13 17:35:26;;;;;;;93.47;42.63;;;;;;;;;;4944936;29;20035;-94
2022/12/13 17:37:53;;;;;;;151.43;63.70;;;;;;;;;;4945265;29;20055;-94
2022/12/13 17:40:22;;;;;;;204.93;89.82;;;;;;;;;;4943992;29;20129;-95
2022/12/13 17:42:56;;;;;;;106.05;49.80;;;;;;;;;;4961737;29;20030;-94
2022/12/13 17:45:22;;;;;;;217.70;95.38;;;;;;;;;;4945113;29;20031;-96
2022/12/13 17:47:51;;;;;;;268.65;104.53;;;;;;;;;;4961219;28;20066;-94
2022/12/13 17:50:20;;;;;;;134.88;59.40;;;;;;;;;;4944788;29;20444;-95
2022/12/13 17:52:46;;;;;;;262.73;101.75;;;;;;;;;;4961527;29;20027;-94
2022/12/13 17:55:15;;;;;;;181.20;71.00;;;;;;;;;;4961508;29;20027;-95
2022/12/13 17:57:43;;;;;;;219.55;81.70;;;;;;;;;;4961486;29;20429;-94
2022/12/13 18:00:10;;;;;;;106.97;47.00;;;;;;;;;;4944660;29;20181;-94
2022/12/13 18:02:39;;;;;;;103.63;47.58;;;;;;;;;;4961300;29;20027;-94
2022/12/13 18:05:06;;;;;;;140.90;58.88;;;;;;;;;;4961710;29;20086;-94
2022/12/13 18:07:34;;;;;;;185.35;70.30;;;;;;;;;;4944597;29;20034;-94
2022/12/13 18:10:01;;;;;;;140.32;53.70;;;;;;;;;;4961474;29;20031;-94
2022/12/13 18:12:27;;;;;;;190.43;67.72;;;;;;;;;;4961427;29;20027;-95
2022/12/13 18:14:55;;;;;;;169.25;61.75;;;;;;;;;;4961277;29;20118;-93
2022/12/13 18:17:24;;;;;;;166.98;62.70;;;;;;;;;;4961153;29;20374;-95
2022/12/13 18:19:53;;;;;;;256.05;96.57;;;;;;;;;;4961417;29;20082;-94
2022/12/13 18:22:19;;;;;;;166.75;65.65;;;;;;;;;;4944216;29;20031;-94
2022/12/13 18:24:48;;;;;;;120.63;53.25;;;;;;;;;;4961392;29;20037;-95
2022/12/13 18:27:14;;;;;;;143.70;62.25;;;;;;;;;;4943878;29;20126;-95
2022/12/13 18:29:43;;;;;;;73.05;37.03;;;;;;;;;;4961014;29;20035;-94
2022/12/13 18:32:19;;;;;;;125.72;57.33;;;;;;;;;;4943392;29;20043;-94
2022/12/13 18:34:50;;;;;;;74.93;36.47;;;;;;;;;;4940778;29;20080;-94
2022/12/13 18:37:16;;;;;;;88.20;42.95;;;;;;;;;;4940812;29;20055;-93
2022/12/13 18:39:42;;;;;;;68.65;37.10;;;;;;;;;;4956948;29;20109;-94
2022/12/13 18:42:09;;;;;;;53.60;28.65;;;;;;;;;;4978117;28;20030;-94
2022/12/13 18:44:35;;;;;;;63.92;31.85;;;;;;;;;;4980515;28;20035;-94
2022/12/13 18:47:04;;;;;;;109.72;38.58;;;;;;;;;;4963092;28;20050;-94
2022/12/13 18:49:30;;;;;;;58.65;29.52;;;;;;;;;;4980144;28;20027;-95
2022/12/13 18:51:56;;;;;;;77.10;40.38;;;;;;;;;;4979937;28;20023;-94
2022/12/13 18:54:22;;;;;;;84.50;40.60;;;;;;;;;;4979166;28;20034;-95
2022/12/13 18:56:51;;;;;;;67.15;35.53;;;;;;;;;;4979929;28;20102;-94
2022/12/13 18:59:22;;;;;;;72.50;36.45;;;;;;;;;;4979326;28;20078;-95
2022/12/13 19:01:48;;;;;;;62.47;33.72;;;;;;;;;;4957659;28;20023;-95
2022/12/13 19:04:17;;;;;;;55.58;29.95;;;;;;;;;;4951562;29;20031;-95
2022/12/13 19:06:46;;;;;;;54.40;29.92;;;;;;;;;;4937811;29;20034;-94
2022/12/13 19:09:12;;;;;;;49.75;27.92;;;;;;;;;;4935087;29;20036;-94
2022/12/13 19:11:38;;;;;;;54.40;28.92;;;;;;;;;;4959943;29;20296;-95
2022/12/13 19:14:07;;;;;;;56.97;30.35;;;;;;;;;;4960296;29;20370;-94
2022/12/13 19:16:33;;;;;;;50.03;28.10;;;;;;;;;;4942870;29;20031;-94
2022/12/13 19:18:59;;;;;;;52.63;28.58;;;;;;;;;;4960346;29;20023;-95
2022/12/13 19:21:26;;;;;;;55.70;31.13;;;;;;;;;;4960393;29;20019;-94
2022/12/13 19:23:52;;;;;;;100.60;47.35;;;;;;;;;;4960351;29;20034;-94
2022/12/13 19:26:19;;;;;;;69.65;38.50;;;;;;;;;;4960037;29;20027;-94
2022/12/13 19:28:45;;;;;;;65.95;35.63;;;;;;;;;;4959881;29;20329;-95
2022/12/13 19:31:12;;;;;;;54.35;29.70;;;;;;;;;;4959860;29;20055;-95
2022/12/13 19:33:39;;;;;;;53.10;28.30;;;;;;;;;;4942513;29;20079;-95
2022/12/13 19:36:05;;;;;;;58.10;31.58;;;;;;;;;;4942939;29;20027;-95
2022/12/13 19:38:32;;;;;;;52.40;29.17;;;;;;;;;;4960138;29;20027;-94
2022/12/13 19:40:58;;;;;;;57.47;32.80;;;;;;;;;;4942893;29;20027;-95
2022/12/13 19:43:24;;;;;;;51.53;28.90;;;;;;;;;;4959844;29;20028;-95
2022/12/13 19:45:50;;;;;;;59.88;31.38;;;;;;;;;;4959640;29;20043;-94
2022/12/13 19:48:16;;;;;;;66.45;34.20;;;;;;;;;;4942152;29;20032;-94